sensor_id;sensor_type;location;lat;lon;timestamp;P1;durP1;ratioP1;P2;durP2;ratioP2
74059;SDS011;62414;53.436;8.828;2022-09-28T00:00:24;12.63;;;5.70;;
74059;SDS011;62414;53.436;8.828;2022-09-28T00:02:50;12.93;;;5.80;;
74059;SDS011;62414;53.436;8.828;2022-09-28T00:05:15;11.65;;;5.47;;
74059;SDS011;62414;53.436;8.828;2022-09-28T00:07:41;11.87;;;5.50;;
74059;SDS011;62414;53.436;8.828;2022-09-28T00:10:07;11.60;;;5.43;;
74059;SDS011;62414;53.436;8.828;2022-09-28T00:12:35;12.40;;;5.72;;
74059;SDS011;62414;53.436;8.828;2022-09-28T00:15:00;12.40;;;5.57;;
74059;SDS011;62414;53.436;8.828;2022-09-28T00:17:26;12.00;;;5.45;;
74059;SDS011;62414;53.436;8.828;2022-09-28T00:19:51;13.63;;;6.27;;
74059;SDS011;62414;53.436;8.828;2022-09-28T00:22:17;12.20;;;5.77;;
74059;SDS011;62414;53.436;8.828;2022-09-28T00:24:42;15.30;;;6.30;;
74059;SDS011;62414;53.436;8.828;2022-09-28T00:27:07;12.70;;;6.40;;
74059;SDS011;62414;53.436;8.828;2022-09-28T00:29:35;13.23;;;6.23;;
74059;SDS011;62414;53.436;8.828;2022-09-28T00:32:02;13.05;;;6.10;;
74059;SDS011;62414;53.436;8.828;2022-09-28T00:34:29;12.63;;;5.80;;
74059;SDS011;62414;53.436;8.828;2022-09-28T00:36:56;14.23;;;6.55;;
74059;SDS011;62414;53.436;8.828;2022-09-28T00:39:22;12.30;;;5.93;;
74059;SDS011;62414;53.436;8.828;2022-09-28T00:41:48;12.77;;;5.82;;
74059;SDS011;62414;53.436;8.828;2022-09-28T00:44:31;13.30;;;5.97;;
74059;SDS011;62414;53.436;8.828;2022-09-28T00:47:12;11.55;;;5.35;;
74059;SDS011;62414;53.436;8.828;2022-09-28T00:50:04;13.68;;;6.32;;
74059;SDS011;62414;53.436;8.828;2022-09-28T00:52:34;13.15;;;5.70;;
74059;SDS011;62414;53.436;8.828;2022-09-28T00:55:04;17.98;;;6.40;;
74059;SDS011;62414;53.436;8.828;2022-09-28T00:57:35;13.77;;;6.23;;
74059;SDS011;62414;53.436;8.828;2022-09-28T01:00:05;14.57;;;6.18;;
74059;SDS011;62414;53.436;8.828;2022-09-28T01:02:32;14.90;;;5.90;;
74059;SDS011;62414;53.436;8.828;2022-09-28T01:04:57;15.60;;;6.90;;
74059;SDS011;62414;53.436;8.828;2022-09-28T01:07:24;18.87;;;8.07;;
74059;SDS011;62414;53.436;8.828;2022-09-28T01:09:49;15.00;;;6.95;;
74059;SDS011;62414;53.436;8.828;2022-09-28T01:12:15;18.90;;;7.40;;
74059;SDS011;62414;53.436;8.828;2022-09-28T01:14:41;15.63;;;7.03;;
74059;SDS011;62414;53.436;8.828;2022-09-28T01:17:10;17.08;;;7.85;;
74059;SDS011;62414;53.436;8.828;2022-09-28T01:22:46;18.77;;;8.13;;
74059;SDS011;62414;53.436;8.828;2022-09-28T01:25:38;17.88;;;7.80;;
74059;SDS011;62414;53.436;8.828;2022-09-28T01:28:07;16.80;;;7.32;;
74059;SDS011;62414;53.436;8.828;2022-09-28T01:30:37;17.33;;;7.70;;
74059;SDS011;62414;53.436;8.828;2022-09-28T01:33:08;16.77;;;8.00;;
74059;SDS011;62414;53.436;8.828;2022-09-28T01:35:37;17.85;;;8.25;;
74059;SDS011;62414;53.436;8.828;2022-09-28T01:38:06;16.40;;;7.50;;
74059;SDS011;62414;53.436;8.828;2022-09-28T01:40:35;16.30;;;7.32;;
74059;SDS011;62414;53.436;8.828;2022-09-28T01:43:02;18.45;;;7.75;;
74059;SDS011;62414;53.436;8.828;2022-09-28T01:45:33;16.63;;;7.40;;
74059;SDS011;62414;53.436;8.828;2022-09-28T01:48:04;15.85;;;7.65;;
74059;SDS011;62414;53.436;8.828;2022-09-28T01:50:33;18.48;;;8.27;;
74059;SDS011;62414;53.436;8.828;2022-09-28T01:53:03;14.77;;;7.60;;
74059;SDS011;62414;53.436;8.828;2022-09-28T01:55:35;16.35;;;7.50;;
74059;SDS011;62414;53.436;8.828;2022-09-28T01:58:07;15.70;;;7.17;;
74059;SDS011;62414;53.436;8.828;2022-09-28T02:00:39;17.20;;;7.63;;
74059;SDS011;62414;53.436;8.828;2022-09-28T02:03:09;17.17;;;7.88;;
74059;SDS011;62414;53.436;8.828;2022-09-28T02:05:44;16.15;;;7.78;;
74059;SDS011;62414;53.436;8.828;2022-09-28T02:08:14;17.58;;;8.35;;
74059;SDS011;62414;53.436;8.828;2022-09-28T02:10:50;17.73;;;7.60;;
74059;SDS011;62414;53.436;8.828;2022-09-28T02:13:21;17.48;;;7.45;;
74059;SDS011;62414;53.436;8.828;2022-09-28T02:15:55;14.20;;;7.20;;
74059;SDS011;62414;53.436;8.828;2022-09-28T02:18:27;14.85;;;6.97;;
74059;SDS011;62414;53.436;8.828;2022-09-28T02:20:55;16.23;;;7.38;;
74059;SDS011;62414;53.436;8.828;2022-09-28T02:23:27;14.47;;;7.07;;
74059;SDS011;62414;53.436;8.828;2022-09-28T02:25:58;15.38;;;7.22;;
74059;SDS011;62414;53.436;8.828;2022-09-28T02:28:26;13.52;;;6.72;;
74059;SDS011;62414;53.436;8.828;2022-09-28T02:30:51;12.57;;;6.33;;
74059;SDS011;62414;53.436;8.828;2022-09-28T02:33:19;14.10;;;7.23;;
74059;SDS011;62414;53.436;8.828;2022-09-28T02:35:48;13.32;;;6.72;;
74059;SDS011;62414;53.436;8.828;2022-09-28T02:38:16;15.25;;;7.00;;
74059;SDS011;62414;53.436;8.828;2022-09-28T02:40:42;14.00;;;7.00;;
74059;SDS011;62414;53.436;8.828;2022-09-28T02:43:14;15.95;;;7.78;;
74059;SDS011;62414;53.436;8.828;2022-09-28T02:45:49;16.38;;;7.78;;
74059;SDS011;62414;53.436;8.828;2022-09-28T02:48:34;16.25;;;8.05;;
74059;SDS011;62414;53.436;8.828;2022-09-28T02:51:17;20.63;;;7.80;;
74059;SDS011;62414;53.436;8.828;2022-09-28T02:56:45;16.10;;;7.85;;
74059;SDS011;62414;53.436;8.828;2022-09-28T02:59:20;18.13;;;8.68;;
74059;SDS011;62414;53.436;8.828;2022-09-28T03:01:55;19.00;;;9.38;;
74059;SDS011;62414;53.436;8.828;2022-09-28T03:04:29;27.17;;;8.70;;
74059;SDS011;62414;53.436;8.828;2022-09-28T03:07:03;20.45;;;8.60;;
74059;SDS011;62414;53.436;8.828;2022-09-28T03:09:32;18.00;;;8.52;;
74059;SDS011;62414;53.436;8.828;2022-09-28T03:12:05;19.40;;;8.00;;
74059;SDS011;62414;53.436;8.828;2022-09-28T03:14:33;19.48;;;8.23;;
74059;SDS011;62414;53.436;8.828;2022-09-28T03:16:58;18.80;;;7.60;;
74059;SDS011;62414;53.436;8.828;2022-09-28T03:19:26;23.20;;;8.97;;
74059;SDS011;62414;53.436;8.828;2022-09-28T03:21:58;26.05;;;8.70;;
74059;SDS011;62414;53.436;8.828;2022-09-28T03:24:23;22.93;;;8.00;;
74059;SDS011;62414;53.436;8.828;2022-09-28T03:26:49;34.03;;;7.15;;
74059;SDS011;62414;53.436;8.828;2022-09-28T03:29:15;19.58;;;8.02;;
74059;SDS011;62414;53.436;8.828;2022-09-28T03:31:43;19.97;;;8.20;;
74059;SDS011;62414;53.436;8.828;2022-09-28T03:34:08;17.88;;;8.18;;
74059;SDS011;62414;53.436;8.828;2022-09-28T03:36:35;23.40;;;8.60;;
74059;SDS011;62414;53.436;8.828;2022-09-28T03:39:01;17.23;;;8.85;;
74059;SDS011;62414;53.436;8.828;2022-09-28T03:41:26;17.90;;;8.80;;
74059;SDS011;62414;53.436;8.828;2022-09-28T03:43:52;18.03;;;8.00;;
74059;SDS011;62414;53.436;8.828;2022-09-28T03:46:18;13.07;;;7.65;;
74059;SDS011;62414;53.436;8.828;2022-09-28T03:48:48;20.15;;;8.77;;
74059;SDS011;62414;53.436;8.828;2022-09-28T03:51:13;15.13;;;8.50;;
74059;SDS011;62414;53.436;8.828;2022-09-28T03:53:40;14.30;;;8.10;;
74059;SDS011;62414;53.436;8.828;2022-09-28T03:56:06;22.40;;;12.10;;
74059;SDS011;62414;53.436;8.828;2022-09-28T03:58:34;33.63;;;14.27;;
74059;SDS011;62414;53.436;8.828;2022-09-28T04:01:00;28.37;;;13.53;;
74059;SDS011;62414;53.436;8.828;2022-09-28T04:03:27;26.92;;;13.10;;
74059;SDS011;62414;53.436;8.828;2022-09-28T04:05:52;27.25;;;11.13;;
74059;SDS011;62414;53.436;8.828;2022-09-28T04:08:18;26.13;;;9.53;;
74059;SDS011;62414;53.436;8.828;2022-09-28T04:10:45;31.10;;;10.50;;
74059;SDS011;62414;53.436;8.828;2022-09-28T04:13:11;28.83;;;9.45;;
74059;SDS011;62414;53.436;8.828;2022-09-28T04:15:38;30.02;;;8.88;;
74059;SDS011;62414;53.436;8.828;2022-09-28T04:18:04;34.50;;;9.20;;
74059;SDS011;62414;53.436;8.828;2022-09-28T04:20:58;42.67;;;9.40;;
74059;SDS011;62414;53.436;8.828;2022-09-28T04:23:25;56.80;;;10.03;;
74059;SDS011;62414;53.436;8.828;2022-09-28T04:25:52;49.55;;;10.05;;
74059;SDS011;62414;53.436;8.828;2022-09-28T04:28:18;82.90;;;10.52;;
74059;SDS011;62414;53.436;8.828;2022-09-28T04:30:45;87.15;;;9.63;;
74059;SDS011;62414;53.436;8.828;2022-09-28T04:33:10;60.03;;;9.73;;
74059;SDS011;62414;53.436;8.828;2022-09-28T04:35:36;83.75;;;10.75;;
74059;SDS011;62414;53.436;8.828;2022-09-28T04:38:01;90.53;;;11.30;;
74059;SDS011;62414;53.436;8.828;2022-09-28T04:40:28;98.10;;;9.85;;
74059;SDS011;62414;53.436;8.828;2022-09-28T04:42:55;87.43;;;10.13;;
74059;SDS011;62414;53.436;8.828;2022-09-28T04:45:21;59.58;;;8.45;;
74059;SDS011;62414;53.436;8.828;2022-09-28T04:47:48;66.05;;;8.98;;
74059;SDS011;62414;53.436;8.828;2022-09-28T04:50:32;41.20;;;7.68;;
74059;SDS011;62414;53.436;8.828;2022-09-28T04:53:18;39.25;;;8.25;;
74059;SDS011;62414;53.436;8.828;2022-09-28T04:55:49;49.43;;;8.20;;
74059;SDS011;62414;53.436;8.828;2022-09-28T04:58:21;41.85;;;7.57;;
74059;SDS011;62414;53.436;8.828;2022-09-28T05:00:46;42.28;;;7.90;;
74059;SDS011;62414;53.436;8.828;2022-09-28T05:03:37;37.70;;;8.43;;
74059;SDS011;62414;53.436;8.828;2022-09-28T05:06:32;32.00;;;9.07;;
74059;SDS011;62414;53.436;8.828;2022-09-28T05:09:03;26.50;;;11.40;;
74059;SDS011;62414;53.436;8.828;2022-09-28T05:11:28;42.50;;;12.57;;
74059;SDS011;62414;53.436;8.828;2022-09-28T05:13:55;48.27;;;13.20;;
74059;SDS011;62414;53.436;8.828;2022-09-28T05:16:20;48.97;;;14.25;;
74059;SDS011;62414;53.436;8.828;2022-09-28T05:19:04;46.75;;;14.13;;
74059;SDS011;62414;53.436;8.828;2022-09-28T05:21:30;38.13;;;12.93;;
74059;SDS011;62414;53.436;8.828;2022-09-28T05:23:55;35.50;;;10.30;;
74059;SDS011;62414;53.436;8.828;2022-09-28T05:26:22;28.70;;;9.52;;
74059;SDS011;62414;53.436;8.828;2022-09-28T05:28:47;46.80;;;8.50;;
74059;SDS011;62414;53.436;8.828;2022-09-28T05:31:33;44.33;;;8.35;;
74059;SDS011;62414;53.436;8.828;2022-09-28T05:34:16;43.10;;;8.30;;
74059;SDS011;62414;53.436;8.828;2022-09-28T05:36:43;49.37;;;9.00;;
74059;SDS011;62414;53.436;8.828;2022-09-28T05:39:08;38.03;;;9.10;;
74059;SDS011;62414;53.436;8.828;2022-09-28T05:41:34;32.07;;;8.90;;
74059;SDS011;62414;53.436;8.828;2022-09-28T05:44:00;42.30;;;8.80;;
74059;SDS011;62414;53.436;8.828;2022-09-28T05:46:25;28.60;;;8.83;;
74059;SDS011;62414;53.436;8.828;2022-09-28T05:48:52;42.47;;;13.27;;
74059;SDS011;62414;53.436;8.828;2022-09-28T05:51:18;35.03;;;10.93;;
74059;SDS011;62414;53.436;8.828;2022-09-28T05:53:44;27.57;;;7.70;;
74059;SDS011;62414;53.436;8.828;2022-09-28T05:56:10;18.48;;;7.22;;
74059;SDS011;62414;53.436;8.828;2022-09-28T05:58:41;26.90;;;8.20;;
74059;SDS011;62414;53.436;8.828;2022-09-28T06:01:07;20.20;;;8.85;;
74059;SDS011;62414;53.436;8.828;2022-09-28T06:03:33;28.37;;;13.23;;
74059;SDS011;62414;53.436;8.828;2022-09-28T06:06:00;29.23;;;12.07;;
74059;SDS011;62414;53.436;8.828;2022-09-28T06:08:26;29.52;;;9.45;;
74059;SDS011;62414;53.436;8.828;2022-09-28T06:11:01;18.17;;;9.52;;
74059;SDS011;62414;53.436;8.828;2022-09-28T06:13:27;39.53;;;9.50;;
74059;SDS011;62414;53.436;8.828;2022-09-28T06:15:53;64.10;;;9.27;;
74059;SDS011;62414;53.436;8.828;2022-09-28T06:18:19;51.97;;;9.88;;
74059;SDS011;62414;53.436;8.828;2022-09-28T06:21:21;51.67;;;9.38;;
74059;SDS011;62414;53.436;8.828;2022-09-28T06:23:46;48.05;;;9.35;;
74059;SDS011;62414;53.436;8.828;2022-09-28T06:26:12;23.43;;;8.97;;
74059;SDS011;62414;53.436;8.828;2022-09-28T06:28:38;56.88;;;10.30;;
74059;SDS011;62414;53.436;8.828;2022-09-28T06:31:04;24.10;;;10.68;;
74059;SDS011;62414;53.436;8.828;2022-09-28T06:33:33;59.63;;;11.37;;
74059;SDS011;62414;53.436;8.828;2022-09-28T06:35:58;55.33;;;11.43;;
74059;SDS011;62414;53.436;8.828;2022-09-28T06:38:26;41.10;;;10.30;;
74059;SDS011;62414;53.436;8.828;2022-09-28T06:40:51;32.95;;;10.93;;
74059;SDS011;62414;53.436;8.828;2022-09-28T06:43:17;46.17;;;11.45;;
74059;SDS011;62414;53.436;8.828;2022-09-28T06:46:01;31.10;;;11.52;;
74059;SDS011;62414;53.436;8.828;2022-09-28T06:49:02;32.57;;;10.27;;
74059;SDS011;62414;53.436;8.828;2022-09-28T06:51:50;33.97;;;11.88;;
74059;SDS011;62414;53.436;8.828;2022-09-28T06:54:36;37.80;;;9.95;;
74059;SDS011;62414;53.436;8.828;2022-09-28T06:57:19;36.38;;;10.10;;
74059;SDS011;62414;53.436;8.828;2022-09-28T06:59:45;26.30;;;11.45;;
74059;SDS011;62414;53.436;8.828;2022-09-28T07:02:11;32.37;;;10.10;;
74059;SDS011;62414;53.436;8.828;2022-09-28T07:04:55;41.75;;;10.38;;
74059;SDS011;62414;53.436;8.828;2022-09-28T07:07:38;67.97;;;11.00;;
74059;SDS011;62414;53.436;8.828;2022-09-28T07:10:28;60.47;;;12.40;;
74059;SDS011;62414;53.436;8.828;2022-09-28T07:13:08;79.07;;;15.05;;
74059;SDS011;62414;53.436;8.828;2022-09-28T07:15:42;83.00;;;15.48;;
74059;SDS011;62414;53.436;8.828;2022-09-28T07:18:10;50.17;;;14.20;;
74059;SDS011;62414;53.436;8.828;2022-09-28T07:20:38;105.15;;;16.65;;
74059;SDS011;62414;53.436;8.828;2022-09-28T07:23:04;146.73;;;19.63;;
74059;SDS011;62414;53.436;8.828;2022-09-28T07:25:41;126.25;;;19.70;;
74059;SDS011;62414;53.436;8.828;2022-09-28T07:28:39;166.85;;;22.65;;
74059;SDS011;62414;53.436;8.828;2022-09-28T07:31:27;199.87;;;25.40;;
74059;SDS011;62414;53.436;8.828;2022-09-28T07:34:16;184.90;;;24.38;;
74059;SDS011;62414;53.436;8.828;2022-09-28T07:37:00;169.20;;;24.17;;
74059;SDS011;62414;53.436;8.828;2022-09-28T07:39:26;161.18;;;24.17;;
74059;SDS011;62414;53.436;8.828;2022-09-28T07:41:53;177.40;;;25.57;;
74059;SDS011;62414;53.436;8.828;2022-09-28T07:44:19;208.85;;;27.33;;
74059;SDS011;62414;53.436;8.828;2022-09-28T07:46:47;167.68;;;26.25;;
74059;SDS011;62414;53.436;8.828;2022-09-28T07:49:20;194.43;;;25.03;;
74059;SDS011;62414;53.436;8.828;2022-09-28T07:51:55;198.50;;;25.10;;
74059;SDS011;62414;53.436;8.828;2022-09-28T07:54:33;201.10;;;25.40;;
74059;SDS011;62414;53.436;8.828;2022-09-28T07:57:11;211.98;;;25.13;;
74059;SDS011;62414;53.436;8.828;2022-09-28T07:59:57;146.82;;;25.80;;
74059;SDS011;62414;53.436;8.828;2022-09-28T08:02:43;254.53;;;25.93;;
74059;SDS011;62414;53.436;8.828;2022-09-28T08:05:10;179.68;;;24.75;;
74059;SDS011;62414;53.436;8.828;2022-09-28T08:07:35;165.15;;;23.45;;
74059;SDS011;62414;53.436;8.828;2022-09-28T08:10:03;105.57;;;21.90;;
74059;SDS011;62414;53.436;8.828;2022-09-28T08:12:46;97.40;;;20.38;;
74059;SDS011;62414;53.436;8.828;2022-09-28T08:15:30;79.75;;;19.70;;
74059;SDS011;62414;53.436;8.828;2022-09-28T08:18:09;76.50;;;18.95;;
74059;SDS011;62414;53.436;8.828;2022-09-28T08:20:35;80.10;;;20.02;;
74059;SDS011;62414;53.436;8.828;2022-09-28T08:23:02;45.10;;;17.00;;
74059;SDS011;62414;53.436;8.828;2022-09-28T08:25:31;53.80;;;19.38;;
74059;SDS011;62414;53.436;8.828;2022-09-28T08:28:02;57.45;;;18.65;;
74059;SDS011;62414;53.436;8.828;2022-09-28T08:30:30;63.17;;;17.90;;
74059;SDS011;62414;53.436;8.828;2022-09-28T08:33:18;47.75;;;18.55;;
74059;SDS011;62414;53.436;8.828;2022-09-28T08:35:47;45.87;;;17.10;;
74059;SDS011;62414;53.436;8.828;2022-09-28T08:38:28;47.38;;;18.55;;
74059;SDS011;62414;53.436;8.828;2022-09-28T08:41:05;48.50;;;18.10;;
74059;SDS011;62414;53.436;8.828;2022-09-28T08:43:59;47.97;;;20.30;;
74059;SDS011;62414;53.436;8.828;2022-09-28T08:46:54;58.38;;;21.48;;
74059;SDS011;62414;53.436;8.828;2022-09-28T08:49:41;59.03;;;22.40;;
74059;SDS011;62414;53.436;8.828;2022-09-28T08:52:29;63.75;;;22.38;;
74059;SDS011;62414;53.436;8.828;2022-09-28T08:55:08;61.28;;;23.45;;
74059;SDS011;62414;53.436;8.828;2022-09-28T08:57:42;62.97;;;22.80;;
74059;SDS011;62414;53.436;8.828;2022-09-28T09:00:15;65.38;;;23.38;;
74059;SDS011;62414;53.436;8.828;2022-09-28T09:02:44;62.70;;;23.33;;
74059;SDS011;62414;53.436;8.828;2022-09-28T09:05:15;63.13;;;22.95;;
74059;SDS011;62414;53.436;8.828;2022-09-28T09:08:13;64.07;;;23.48;;
74059;SDS011;62414;53.436;8.828;2022-09-28T09:10:55;61.22;;;22.67;;
74059;SDS011;62414;53.436;8.828;2022-09-28T09:13:39;58.47;;;21.75;;
74059;SDS011;62414;53.436;8.828;2022-09-28T09:16:27;59.17;;;22.73;;
74059;SDS011;62414;53.436;8.828;2022-09-28T09:19:25;54.53;;;20.98;;
74059;SDS011;62414;53.436;8.828;2022-09-28T09:22:16;55.08;;;22.90;;
74059;SDS011;62414;53.436;8.828;2022-09-28T09:24:54;55.60;;;21.70;;
74059;SDS011;62414;53.436;8.828;2022-09-28T09:27:34;57.00;;;22.55;;
74059;SDS011;62414;53.436;8.828;2022-09-28T09:30:10;50.87;;;20.63;;
74059;SDS011;62414;53.436;8.828;2022-09-28T09:32:45;49.45;;;20.88;;
74059;SDS011;62414;53.436;8.828;2022-09-28T09:35:43;51.80;;;21.75;;
74059;SDS011;62414;53.436;8.828;2022-09-28T09:38:47;54.90;;;21.20;;
74059;SDS011;62414;53.436;8.828;2022-09-28T09:41:42;47.72;;;20.95;;
74059;SDS011;62414;53.436;8.828;2022-09-28T09:44:52;48.60;;;21.27;;
74059;SDS011;62414;53.436;8.828;2022-09-28T09:47:48;49.38;;;20.85;;
74059;SDS011;62414;53.436;8.828;2022-09-28T09:50:23;51.22;;;21.85;;
74059;SDS011;62414;53.436;8.828;2022-09-28T09:52:51;49.75;;;22.15;;
74059;SDS011;62414;53.436;8.828;2022-09-28T09:55:19;48.83;;;22.20;;
74059;SDS011;62414;53.436;8.828;2022-09-28T09:57:53;48.80;;;20.63;;
74059;SDS011;62414;53.436;8.828;2022-09-28T10:00:29;45.00;;;20.80;;
74059;SDS011;62414;53.436;8.828;2022-09-28T10:03:13;44.65;;;19.77;;
74059;SDS011;62414;53.436;8.828;2022-09-28T10:05:46;31.38;;;15.93;;
74059;SDS011;62414;53.436;8.828;2022-09-28T10:08:18;34.92;;;17.50;;
74059;SDS011;62414;53.436;8.828;2022-09-28T10:10:47;33.70;;;17.40;;
74059;SDS011;62414;53.436;8.828;2022-09-28T10:13:16;27.75;;;14.75;;
74059;SDS011;62414;53.436;8.828;2022-09-28T10:15:42;27.40;;;14.57;;
74059;SDS011;62414;53.436;8.828;2022-09-28T10:18:14;23.15;;;12.00;;
74059;SDS011;62414;53.436;8.828;2022-09-28T10:21:01;21.65;;;12.15;;
74059;SDS011;62414;53.436;8.828;2022-09-28T10:23:41;26.60;;;13.63;;
74059;SDS011;62414;53.436;8.828;2022-09-28T10:26:08;23.55;;;12.25;;
74059;SDS011;62414;53.436;8.828;2022-09-28T10:28:39;21.00;;;10.85;;
74059;SDS011;62414;53.436;8.828;2022-09-28T10:34:10;20.25;;;10.00;;
74059;SDS011;62414;53.436;8.828;2022-09-28T10:36:48;20.23;;;9.70;;
74059;SDS011;62414;53.436;8.828;2022-09-28T10:39:26;16.55;;;8.63;;
74059;SDS011;62414;53.436;8.828;2022-09-28T10:41:55;13.32;;;7.07;;
74059;SDS011;62414;53.436;8.828;2022-09-28T10:44:26;13.25;;;6.63;;
74059;SDS011;62414;53.436;8.828;2022-09-28T10:47:00;13.30;;;6.90;;
74059;SDS011;62414;53.436;8.828;2022-09-28T10:49:36;12.80;;;6.00;;
74059;SDS011;62414;53.436;8.828;2022-09-28T10:52:04;12.73;;;5.90;;
74059;SDS011;62414;53.436;8.828;2022-09-28T10:54:41;11.20;;;5.60;;
74059;SDS011;62414;53.436;8.828;2022-09-28T10:57:23;11.18;;;5.05;;
74059;SDS011;62414;53.436;8.828;2022-09-28T10:59:56;14.00;;;6.47;;
74059;SDS011;62414;53.436;8.828;2022-09-28T11:02:22;12.80;;;5.93;;
74059;SDS011;62414;53.436;8.828;2022-09-28T11:04:56;8.57;;;4.15;;
74059;SDS011;62414;53.436;8.828;2022-09-28T11:07:26;9.93;;;4.00;;
74059;SDS011;62414;53.436;8.828;2022-09-28T11:09:53;9.68;;;4.43;;
74059;SDS011;62414;53.436;8.828;2022-09-28T11:12:20;10.35;;;4.53;;
74059;SDS011;62414;53.436;8.828;2022-09-28T11:14:47;8.82;;;4.57;;
74059;SDS011;62414;53.436;8.828;2022-09-28T11:17:23;9.88;;;5.07;;
74059;SDS011;62414;53.436;8.828;2022-09-28T11:19:51;10.57;;;4.80;;
74059;SDS011;62414;53.436;8.828;2022-09-28T11:22:22;10.55;;;4.72;;
74059;SDS011;62414;53.436;8.828;2022-09-28T11:27:38;10.35;;;4.65;;
74059;SDS011;62414;53.436;8.828;2022-09-28T11:30:04;10.27;;;4.70;;
74059;SDS011;62414;53.436;8.828;2022-09-28T11:32:40;8.68;;;3.90;;
74059;SDS011;62414;53.436;8.828;2022-09-28T11:35:18;8.98;;;4.05;;
74059;SDS011;62414;53.436;8.828;2022-09-28T11:37:51;16.35;;;7.65;;
74059;SDS011;62414;53.436;8.828;2022-09-28T11:41:02;14.23;;;5.32;;
74059;SDS011;62414;53.436;8.828;2022-09-28T11:43:43;10.03;;;4.10;;
74059;SDS011;62414;53.436;8.828;2022-09-28T11:46:22;29.63;;;11.05;;
74059;SDS011;62414;53.436;8.828;2022-09-28T11:49:05;23.38;;;8.80;;
74059;SDS011;62414;53.436;8.828;2022-09-28T11:51:38;10.40;;;3.88;;
74059;SDS011;62414;53.436;8.828;2022-09-28T11:54:11;13.07;;;4.90;;
74059;SDS011;62414;53.436;8.828;2022-09-28T11:56:49;12.57;;;5.30;;
74059;SDS011;62414;53.436;8.828;2022-09-28T11:59:17;9.85;;;4.45;;
74059;SDS011;62414;53.436;8.828;2022-09-28T12:01:50;6.88;;;3.30;;
74059;SDS011;62414;53.436;8.828;2022-09-28T12:04:30;7.70;;;3.40;;
74059;SDS011;62414;53.436;8.828;2022-09-28T12:07:01;17.90;;;8.40;;
74059;SDS011;62414;53.436;8.828;2022-09-28T12:09:33;10.60;;;4.93;;
74059;SDS011;62414;53.436;8.828;2022-09-28T12:12:17;9.63;;;4.28;;
74059;SDS011;62414;53.436;8.828;2022-09-28T12:14:47;9.07;;;4.43;;
74059;SDS011;62414;53.436;8.828;2022-09-28T12:17:19;10.27;;;4.40;;
74059;SDS011;62414;53.436;8.828;2022-09-28T12:19:49;10.45;;;4.10;;
74059;SDS011;62414;53.436;8.828;2022-09-28T12:22:19;8.40;;;4.20;;
74059;SDS011;62414;53.436;8.828;2022-09-28T12:24:49;10.30;;;4.55;;
74059;SDS011;62414;53.436;8.828;2022-09-28T12:27:19;11.13;;;4.35;;
74059;SDS011;62414;53.436;8.828;2022-09-28T12:29:52;9.07;;;4.00;;
74059;SDS011;62414;53.436;8.828;2022-09-28T12:32:22;8.10;;;3.63;;
74059;SDS011;62414;53.436;8.828;2022-09-28T12:34:53;10.97;;;3.93;;
74059;SDS011;62414;53.436;8.828;2022-09-28T12:37:28;8.20;;;3.72;;
74059;SDS011;62414;53.436;8.828;2022-09-28T12:40:10;8.55;;;3.25;;
74059;SDS011;62414;53.436;8.828;2022-09-28T12:42:59;6.32;;;3.20;;
74059;SDS011;62414;53.436;8.828;2022-09-28T12:45:38;8.88;;;3.13;;
74059;SDS011;62414;53.436;8.828;2022-09-28T12:48:26;6.77;;;2.97;;
74059;SDS011;62414;53.436;8.828;2022-09-28T12:51:02;7.40;;;3.33;;
74059;SDS011;62414;53.436;8.828;2022-09-28T12:53:45;6.97;;;3.13;;
74059;SDS011;62414;53.436;8.828;2022-09-28T12:56:22;8.10;;;3.53;;
74059;SDS011;62414;53.436;8.828;2022-09-28T12:58:59;7.53;;;3.33;;
74059;SDS011;62414;53.436;8.828;2022-09-28T13:01:43;6.90;;;3.13;;
74059;SDS011;62414;53.436;8.828;2022-09-28T13:04:30;7.22;;;2.95;;
74059;SDS011;62414;53.436;8.828;2022-09-28T13:07:27;7.65;;;3.20;;
74059;SDS011;62414;53.436;8.828;2022-09-28T13:10:02;31.95;;;10.90;;
74059;SDS011;62414;53.436;8.828;2022-09-28T13:12:40;32.53;;;9.18;;
74059;SDS011;62414;53.436;8.828;2022-09-28T13:18:10;8.27;;;3.50;;
74059;SDS011;62414;53.436;8.828;2022-09-28T13:20:46;7.03;;;3.08;;
74059;SDS011;62414;53.436;8.828;2022-09-28T13:23:22;6.90;;;2.88;;
74059;SDS011;62414;53.436;8.828;2022-09-28T13:25:52;5.82;;;2.58;;
74059;SDS011;62414;53.436;8.828;2022-09-28T13:28:22;5.27;;;2.57;;
74059;SDS011;62414;53.436;8.828;2022-09-28T13:30:49;9.23;;;3.70;;
74059;SDS011;62414;53.436;8.828;2022-09-28T13:33:18;7.68;;;3.00;;
74059;SDS011;62414;53.436;8.828;2022-09-28T13:35:47;5.65;;;2.10;;
74059;SDS011;62414;53.436;8.828;2022-09-28T13:38:29;4.93;;;2.30;;
74059;SDS011;62414;53.436;8.828;2022-09-28T13:41:21;5.32;;;2.20;;
74059;SDS011;62414;53.436;8.828;2022-09-28T13:43:54;5.95;;;1.80;;
74059;SDS011;62414;53.436;8.828;2022-09-28T13:46:38;4.60;;;1.60;;
74059;SDS011;62414;53.436;8.828;2022-09-28T13:49:15;4.70;;;1.90;;
74059;SDS011;62414;53.436;8.828;2022-09-28T13:51:46;5.47;;;1.75;;
74059;SDS011;62414;53.436;8.828;2022-09-28T13:54:41;5.35;;;2.00;;
74059;SDS011;62414;53.436;8.828;2022-09-28T13:57:16;3.47;;;1.60;;
74059;SDS011;62414;53.436;8.828;2022-09-28T13:59:50;4.40;;;1.70;;
74059;SDS011;62414;53.436;8.828;2022-09-28T14:02:27;4.50;;;1.73;;
74059;SDS011;62414;53.436;8.828;2022-09-28T14:04:58;4.75;;;1.80;;
74059;SDS011;62414;53.436;8.828;2022-09-28T14:07:50;4.38;;;1.88;;
74059;SDS011;62414;53.436;8.828;2022-09-28T14:10:22;5.38;;;1.92;;
74059;SDS011;62414;53.436;8.828;2022-09-28T14:12:48;4.50;;;1.80;;
74059;SDS011;62414;53.436;8.828;2022-09-28T14:18:13;4.65;;;1.90;;
74059;SDS011;62414;53.436;8.828;2022-09-28T14:20:47;5.72;;;1.80;;
74059;SDS011;62414;53.436;8.828;2022-09-28T14:23:31;4.30;;;1.88;;
74059;SDS011;62414;53.436;8.828;2022-09-28T14:26:19;4.38;;;1.70;;
74059;SDS011;62414;53.436;8.828;2022-09-28T14:29:00;5.50;;;1.90;;
74059;SDS011;62414;53.436;8.828;2022-09-28T14:31:35;6.07;;;2.50;;
74059;SDS011;62414;53.436;8.828;2022-09-28T14:34:17;6.40;;;2.80;;
74059;SDS011;62414;53.436;8.828;2022-09-28T14:36:48;7.65;;;4.00;;
74059;SDS011;62414;53.436;8.828;2022-09-28T14:39:20;3.77;;;1.70;;
74059;SDS011;62414;53.436;8.828;2022-09-28T14:41:50;5.95;;;2.08;;
74059;SDS011;62414;53.436;8.828;2022-09-28T14:44:15;4.40;;;1.97;;
74059;SDS011;62414;53.436;8.828;2022-09-28T14:46:42;5.22;;;2.42;;
74059;SDS011;62414;53.436;8.828;2022-09-28T14:52:09;4.70;;;1.40;;
74059;SDS011;62414;53.436;8.828;2022-09-28T14:54:52;4.47;;;1.70;;
74059;SDS011;62414;53.436;8.828;2022-09-28T14:57:19;5.32;;;2.15;;
74059;SDS011;62414;53.436;8.828;2022-09-28T14:59:48;4.43;;;1.30;;
74059;SDS011;62414;53.436;8.828;2022-09-28T15:02:17;5.67;;;1.97;;
74059;SDS011;62414;53.436;8.828;2022-09-28T15:04:47;8.73;;;3.90;;
74059;SDS011;62414;53.436;8.828;2022-09-28T15:07:19;16.70;;;8.15;;
74059;SDS011;62414;53.436;8.828;2022-09-28T15:09:47;8.47;;;3.67;;
74059;SDS011;62414;53.436;8.828;2022-09-28T15:12:14;5.25;;;2.22;;
74059;SDS011;62414;53.436;8.828;2022-09-28T15:14:43;4.25;;;2.00;;
74059;SDS011;62414;53.436;8.828;2022-09-28T15:17:10;6.18;;;2.40;;
74059;SDS011;62414;53.436;8.828;2022-09-28T15:19:39;4.50;;;2.10;;
74059;SDS011;62414;53.436;8.828;2022-09-28T15:22:14;3.40;;;1.50;;
74059;SDS011;62414;53.436;8.828;2022-09-28T15:24:43;3.75;;;1.60;;
74059;SDS011;62414;53.436;8.828;2022-09-28T15:27:12;4.30;;;1.40;;
74059;SDS011;62414;53.436;8.828;2022-09-28T15:29:39;3.67;;;1.63;;